Terminal Aerodrome Forecast
Issued by NWS

Home | Current Version | Previous Version | Text Only | Print | Product List | Glossary On
Versions: 1 2 3 4 5 6 7 8 9 10 11 12
000
FTUS44 KLZK 200500
TAFHOT
TAF
KHOT 200539Z 2006/2106 VRB03KT P6SM SCT120 SCT250
     FM201400 VRB04KT P6SM SCT040 BKN060
     FM210100 00000KT P6SM SCT060 SCT250=

USA.gov is the U.S. government's official web portal to all federal, state and local government web resources and services.